N1JFY Weather Reports


Display with metric or nautical units.
time (UTC)temp
F
wind
direction
speed
MPH
gust
MPH
rain 1hr
in
rain 24hr
in
rain mn
in
humidity
%
barometer
mb
20240529053045 58 219 0.0 7.0 0.00 1.52 0.00 93 1000.7
20240529051525 58 204 1.0 7.0 0.00 1.52 0.00 94 1000.7
20240529050023 58 211 0.0 4.0 0.00 1.52 0.00 95 1000.7
20240529044530 58 206 0.0 0.0 0.00 1.52 0.00 96 1000.7
20240529043021 59 204 0.0 0.0 0.00 1.52 0.00 96 1000.8
20240529041520 59 235 0.0 3.0 0.00 1.52 0.00 96 1000.8
20240529040017 59 231 0.0 5.0 0.00 1.52 0.00 96 1000.8
20240529035007 59 207 1.0 5.0 0.00 1.52 1.52 96 1001.0
20240529030656 59 225 1.0 7.0 0.00 1.52 1.52 96 1000.8
20240529015119 60 175 0.0 0.0 0.17 1.52 1.52 95 1000.5
20240529011118 61 227 5.0 8.0 0.32 1.42 1.42 90 1000.5
20240529002507 64 171 1.0 4.0 0.00 1.10 1.10 94 999.2
20240528233823 65 167 0.0 4.0 0.00 1.10 1.10 91 999.4
20240528230134 65 167 0.0 0.0 0.00 1.10 1.10 91 999.2
20240528223011 65 167 0.0 5.0 0.00 1.10 1.10 91 999.3
20240528221504 65 168 2.0 8.0 0.00 1.10 1.10 91 999.1
20240528220002 65 169 2.0 7.0 0.00 1.10 1.10 91 999.2
20240528214608 65 161 0.0 5.0 0.00 1.10 1.10 91 999.2
20240528213058 65 163 0.0 5.0 0.00 1.10 1.10 91 999.2
20240528211559 65 209 1.0 9.0 0.00 1.10 1.10 90 999.5
20240528210056 65 161 4.0 9.0 0.00 1.10 1.10 91 999.6
20240528204555 64 169 6.0 12.0 0.00 1.10 1.10 91 999.5
20240528203052 64 155 6.0 13.0 0.00 1.10 1.10 91 999.6
20240528201555 64 159 5.0 12.0 0.00 1.10 1.10 92 999.7
20240528200050 64 182 7.0 12.0 0.00 1.10 1.10 92 999.6
20240528194548 63 136 3.0 10.0 0.00 1.10 1.10 93 999.5
20240528193049 63 166 5.0 9.0 0.00 1.10 1.10 93 999.6
20240528191549 62 156 3.0 10.0 0.00 1.10 1.10 94 1000.0
20240528190047 62 167 0.0 10.0 0.00 1.10 1.10 94 1000.2
20240528184550 62 165 1.0 10.0 0.00 1.10 1.10 94 1000.3
20240528183041 61 166 5.0 9.0 0.00 1.10 1.10 94 1000.4
20240528181549 61 184 2.0 7.0 0.00 1.10 1.10 94 1000.4
20240528180046 62 140 5.0 14.0 0.00 1.10 1.10 94 1000.6
20240528174554 61 163 5.0 12.0 0.00 1.10 1.10 94 1000.6
20240528173034 61 175 5.0 13.0 0.00 1.10 1.10 95 1000.6
20240528171533 61 153 4.0 11.0 0.00 1.10 1.10 95 1000.6
20240528170030 60 161 6.0 11.0 0.00 1.10 1.10 95 1000.7
20240528164529 60 146 5.0 10.0 0.00 1.10 1.10 95 1000.9
20240528163030 61 173 8.0 15.0 0.00 1.10 1.10 95 1001.1
20240528161526 61 162 6.0 19.0 0.00 1.10 1.10 95 1001.0
20240528160024 61 174 8.0 17.0 0.00 1.10 1.10 95 1001.1
20240528154527 61 190 2.0 16.0 0.00 1.10 1.10 95 1001.3
20240528153021 61 156 3.0 14.0 0.00 1.10 1.10 95 1001.3
20240528151519 61 212 3.0 13.0 0.00 1.10 1.10 95 1001.6
20240528150019 61 165 2.0 11.0 0.00 1.10 1.10 96 1001.7
20240528144518 60 163 2.0 12.0 0.01 1.10 1.10 96 1001.8
20240528143012 60 165 7.0 12.0 0.02 1.10 1.10 96 1001.9
20240528141512 60 158 4.0 11.0 0.02 1.10 1.10 96 1002.2
20240528140009 59 167 3.0 10.0 0.02 1.10 1.10 96 1002.3
20240528134507 59 188 6.0 12.0 0.02 1.09 1.09 96 1002.4
20240528133005 59 165 5.0 9.0 0.02 1.08 1.08 97 1002.5
20240528131506 58 173 1.0 7.0 0.03 1.08 1.08 97 1002.6
20240528130100 57 182 3.0 7.0 0.06 1.08 1.08 97 1002.9
20240528124603 57 169 2.0 8.0 0.15 1.07 1.07 97 1002.9
20240528123055 56 172 1.0 6.0 0.25 1.06 1.06 97 1003.2
20240528121552 56 156 1.0 5.0 0.38 1.05 1.05 96 1003.4
20240528120057 56 175 0.0 8.0 0.41 1.02 1.02 96 1003.6
20240528114551 55 155 2.0 12.0 0.30 0.91 0.91 96 1003.8
20240528113047 55 150 5.0 11.0 0.23 0.80 0.80 96 1003.7
20240528111545 55 160 2.0 9.0 0.11 0.66 0.66 96 1003.8
20240528110046 55 179 2.0 12.0 0.08 0.61 0.61 96 1003.9
20240528104543 55 177 6.0 12.0 0.11 0.61 0.61 96 1004.1
20240528103040 55 165 4.0 10.0 0.10 0.56 0.56 95 1004.3
20240528101544 54 171 4.0 12.0 0.13 0.55 0.55 95 1004.6
20240528100038 54 168 5.0 14.0 0.24 0.52 0.52 95 1004.6
20240528094542 54 153 5.0 11.0 0.36 0.50 0.50 95 1004.9
20240528093034 54 188 7.0 15.0 0.39 0.47 0.47 95 1005.0
20240528091547 54 157 6.0 14.0 0.36 0.42 0.42 95 1005.0
20240528090039 54 141 7.0 14.0 0.23 0.28 0.28 95 1005.1
20240528084531 54 190 7.0 16.0 0.09 0.13 0.13 94 1005.1
20240528083027 54 154 6.0 16.0 0.05 0.08 0.08 94 1005.4
20240528081527 54 138 8.0 17.0 0.04 0.06 0.06 94 1005.6
20240528080023 54 143 9.0 21.0 0.04 0.05 0.05 93 1006.0
20240528074521 54 175 8.0 19.0 0.04 0.04 0.04 93 1006.3
20240528073018 54 170 11.0 17.0 0.03 0.03 0.03 93 1006.4
20240528071517 54 178 8.0 22.0 0.02 0.02 0.02 92 1006.7
20240528070018 54 133 8.0 22.0 0.01 0.01 0.01 91 1007.0
20240528064520 54 115 7.0 21.0 0.00 0.00 0.00 89 1007.3
20240528063018 54 163 6.0 21.0 0.00 0.00 0.00 87 1007.9
20240528061504 54 145 6.0 25.0 0.00 0.00 0.00 86 1008.3
20240528060001 54 154 12.0 22.0 0.00 0.00 0.00 85 1008.7
20240528054559 54 141 7.0 19.0 0.00 0.00 0.00 85 1008.8